Time;durP1;ratioP1;P1;durP2;ratioP2;P2;SDS_P1;SDS_P2;PMS_P1;PMS_P2;Temp;Humidity;BMP_temperature;BMP_pressure;BME280_temperature;BME280_humidity;BME280_pressure;Samples;Min_cycle;Max_cycle;Signal;HPM_P1;HPM_P2
2022/03/26 00:02:18;;;;;;;26.23;8.93;;;;;;;;;;6236239;28;20042;-80
2022/03/26 00:05:21;;;;;;;27.27;9.02;;;;;;;;;;6228332;28;20041;-79
2022/03/26 00:08:22;;;;;;;23.75;9.00;;;;;;;;;;6212246;28;20045;-78
2022/03/26 00:11:24;;;;;;;22.55;9.07;;;;;;;;;;6214315;28;20048;-80
2022/03/26 00:14:26;;;;;;;18.48;8.57;;;;;;;;;;6234882;28;20060;-80
2022/03/26 00:17:27;;;;;;;25.77;8.88;;;;;;;;;;6240453;28;20612;-81
2022/03/26 00:20:29;;;;;;;22.85;8.48;;;;;;;;;;6241735;28;20120;-79
2022/03/26 00:23:31;;;;;;;20.73;8.77;;;;;;;;;;6221331;28;20217;-80
2022/03/26 00:26:33;;;;;;;25.98;8.85;;;;;;;;;;6212746;28;20128;-80
2022/03/26 00:29:35;;;;;;;24.73;9.63;;;;;;;;;;6213922;28;20073;-81
2022/03/26 00:32:37;;;;;;;23.30;8.93;;;;;;;;;;6212322;28;20065;-80
2022/03/26 00:35:38;;;;;;;23.98;10.02;;;;;;;;;;6212612;28;20046;-78
2022/03/26 00:38:40;;;;;;;30.27;10.50;;;;;;;;;;6216885;28;20089;-78
2022/03/26 00:41:41;;;;;;;24.75;10.32;;;;;;;;;;6217509;28;20060;-81
2022/03/26 00:44:43;;;;;;;31.38;10.55;;;;;;;;;;6217168;28;20077;-81
2022/03/26 00:47:45;;;;;;;28.63;10.77;;;;;;;;;;6216066;28;20050;-80
2022/03/26 00:50:46;;;;;;;28.10;10.90;;;;;;;;;;6240823;28;20103;-80
2022/03/26 00:53:48;;;;;;;22.40;10.77;;;;;;;;;;6241789;28;20103;-79
2022/03/26 00:56:50;;;;;;;22.95;10.25;;;;;;;;;;6240612;28;20140;-81
2022/03/26 00:59:52;;;;;;;25.33;9.48;;;;;;;;;;6256112;28;20037;-80
2022/03/26 01:02:54;;;;;;;23.33;9.88;;;;;;;;;;6240938;28;20045;-80
2022/03/26 01:05:56;;;;;;;23.52;9.02;;;;;;;;;;6241992;28;20088;-79
2022/03/26 01:08:58;;;;;;;23.25;9.43;;;;;;;;;;6241136;28;20057;-80
2022/03/26 01:12:00;;;;;;;24.33;9.18;;;;;;;;;;6221966;28;20153;-80
2022/03/26 01:15:02;;;;;;;19.20;8.95;;;;;;;;;;6216877;28;20137;-82
2022/03/26 01:18:04;;;;;;;22.23;9.05;;;;;;;;;;6217798;28;20527;-80
2022/03/26 01:21:06;;;;;;;23.70;9.48;;;;;;;;;;6219026;28;20149;-81
2022/03/26 01:24:08;;;;;;;26.25;9.98;;;;;;;;;;6230588;28;20068;-80
2022/03/26 01:27:09;;;;;;;23.80;9.82;;;;;;;;;;6224746;28;20088;-80
2022/03/26 01:30:11;;;;;;;20.58;9.23;;;;;;;;;;6222127;28;20134;-79
2022/03/26 01:33:13;;;;;;;21.15;9.43;;;;;;;;;;6247217;28;20049;-78
2022/03/26 01:36:15;;;;;;;23.23;10.05;;;;;;;;;;6221444;28;20057;-80
2022/03/26 01:39:18;;;;;;;18.63;9.43;;;;;;;;;;6238299;28;20116;-80
2022/03/26 01:42:20;;;;;;;;;;;;;;;;;;6223190;28;20077;-77
2022/03/26 01:45:21;;;;;;;20.90;9.88;;;;;;;;;;6222849;28;19975;-81
2022/03/26 01:48:23;;;;;;;22.13;9.82;;;;;;;;;;6221184;28;20049;-81
2022/03/26 01:51:25;;;;;;;21.73;9.27;;;;;;;;;;6220945;28;20153;-80
2022/03/26 01:54:27;;;;;;;21.80;10.05;;;;;;;;;;6221267;28;20122;-80
2022/03/26 01:57:29;;;;;;;22.20;10.40;;;;;;;;;;6221265;28;20180;-79
2022/03/26 02:00:31;;;;;;;25.67;10.20;;;;;;;;;;6219365;28;20148;-81
2022/03/26 02:03:33;;;;;;;20.52;9.77;;;;;;;;;;6219605;28;20075;-80
2022/03/26 02:06:38;;;;;;;24.15;9.63;;;;;;;;;;6194232;28;20042;-79
2022/03/26 02:09:40;;;;;;;21.38;9.70;;;;;;;;;;6218024;28;20523;-79
2022/03/26 02:12:42;;;;;;;22.98;9.68;;;;;;;;;;6220442;28;20732;-78
2022/03/26 02:15:44;;;;;;;22.85;9.13;;;;;;;;;;6243977;28;20816;-81
2022/03/26 02:18:45;;;;;;;24.95;10.15;;;;;;;;;;6220269;28;20050;-81
2022/03/26 02:21:49;;;;;;;27.52;10.18;;;;;;;;;;6253140;28;20045;-78
2022/03/26 02:24:51;;;;;;;26.40;9.80;;;;;;;;;;6222367;28;20092;-77
2022/03/26 02:27:54;;;;;;;;;;;;;;;;;;6222702;28;20049;-79
2022/03/26 02:30:56;;;;;;;31.48;10.68;;;;;;;;;;6245176;28;20000;-78
2022/03/26 02:33:57;;;;;;;29.50;10.05;;;;;;;;;;6225249;28;20045;-81
2022/03/26 02:36:59;;;;;;;27.70;11.52;;;;;;;;;;6238111;28;20121;-78
2022/03/26 02:40:04;;;;;;;25.85;9.98;;;;;;;;;;6239210;28;20045;-81
2022/03/26 02:43:07;;;;;;;25.50;9.15;;;;;;;;;;6229590;28;20112;-81
2022/03/26 02:46:09;;;;;;;24.90;10.65;;;;;;;;;;6221543;28;20125;-80
2022/03/26 02:49:14;;;;;;;23.08;9.73;;;;;;;;;;6221451;28;20415;-79
2022/03/26 02:52:15;;;;;;;27.90;10.63;;;;;;;;;;6220799;28;20582;-81
2022/03/26 02:55:17;;;;;;;26.80;11.30;;;;;;;;;;6220022;28;20181;-80
2022/03/26 02:58:19;;;;;;;25.15;10.40;;;;;;;;;;6217264;28;20046;-81
2022/03/26 03:01:23;;;;;;;25.98;9.95;;;;;;;;;;6220689;28;20162;-80
2022/03/26 03:04:26;;;;;;;24.73;10.23;;;;;;;;;;6221539;28;20064;-78
2022/03/26 03:07:27;;;;;;;24.48;10.02;;;;;;;;;;6218430;28;20042;-79
2022/03/26 03:10:30;;;;;;;20.33;9.48;;;;;;;;;;6218890;28;20545;-78
2022/03/26 03:13:32;;;;;;;25.83;10.02;;;;;;;;;;6231356;28;20041;-79
2022/03/26 03:16:33;;;;;;;26.38;11.52;;;;;;;;;;6220541;28;20141;-78
2022/03/26 03:19:35;;;;;;;23.20;9.75;;;;;;;;;;6220335;28;20127;-79
2022/03/26 03:22:38;;;;;;;29.85;11.32;;;;;;;;;;6221136;28;20105;-81
2022/03/26 03:25:39;;;;;;;23.33;10.40;;;;;;;;;;6221992;28;20046;-81
2022/03/26 03:28:42;;;;;;;26.15;9.60;;;;;;;;;;6220398;28;20254;-81
2022/03/26 03:31:47;;;;;;;24.17;9.47;;;;;;;;;;6221173;28;20110;-80
2022/03/26 03:34:50;;;;;;;22.10;9.00;;;;;;;;;;6219746;28;20061;-79
2022/03/26 03:37:52;;;;;;;26.75;10.55;;;;;;;;;;6221603;28;20057;-81
2022/03/26 03:40:55;;;;;;;25.70;10.45;;;;;;;;;;6196149;28;20123;-81
2022/03/26 03:43:56;;;;;;;22.42;9.43;;;;;;;;;;6205773;28;20061;-80
2022/03/26 03:46:58;;;;;;;24.00;9.75;;;;;;;;;;6234039;28;20152;-79
2022/03/26 03:50:00;;;;;;;21.25;9.85;;;;;;;;;;6223155;28;20053;-79
2022/03/26 03:53:01;;;;;;;23.85;9.73;;;;;;;;;;6209998;28;20658;-80
2022/03/26 03:56:03;;;;;;;27.67;10.30;;;;;;;;;;6193686;28;20125;-80
2022/03/26 03:59:05;;;;;;;22.98;9.55;;;;;;;;;;6193831;28;20122;-79
2022/03/26 04:02:09;;;;;;;27.80;9.70;;;;;;;;;;6193763;28;20122;-79
2022/03/26 04:05:11;;;;;;;30.05;10.32;;;;;;;;;;6194248;28;20054;-81
2022/03/26 04:08:17;;;;;;;26.02;10.43;;;;;;;;;;6202099;28;20105;-78
2022/03/26 04:11:18;;;;;;;24.40;9.88;;;;;;;;;;6220942;28;20471;-80
2022/03/26 04:14:20;;;;;;;29.55;11.15;;;;;;;;;;6203276;28;20042;-81
2022/03/26 04:17:22;;;;;;;25.48;10.63;;;;;;;;;;6193479;28;20105;-79
2022/03/26 04:20:23;;;;;;;26.00;9.85;;;;;;;;;;6192313;28;20102;-79
2022/03/26 04:23:25;;;;;;;26.80;10.95;;;;;;;;;;6192765;28;20607;-80
2022/03/26 04:26:26;;;;;;;27.30;10.95;;;;;;;;;;6193307;28;20125;-80
2022/03/26 04:29:28;;;;;;;27.20;10.55;;;;;;;;;;6207125;28;20105;-78
2022/03/26 04:32:30;;;;;;;25.08;9.45;;;;;;;;;;6217093;28;20064;-76
2022/03/26 04:35:34;;;;;;;27.48;10.70;;;;;;;;;;6238515;28;20065;-78
2022/03/26 04:38:36;;;;;;;;;;;;;;;;;;6219767;28;20054;-78
2022/03/26 04:41:38;;;;;;;22.10;9.48;;;;;;;;;;6216859;28;20462;-77
2022/03/26 04:44:39;;;;;;;24.67;10.50;;;;;;;;;;6216382;28;20448;-80
2022/03/26 04:47:41;;;;;;;27.25;10.55;;;;;;;;;;6217418;28;20176;-78
2022/03/26 04:50:42;;;;;;;28.90;10.20;;;;;;;;;;6239078;28;20387;-80
2022/03/26 04:53:44;;;;;;;28.38;11.65;;;;;;;;;;6217183;28;20071;-79
2022/03/26 04:56:46;;;;;;;30.42;10.45;;;;;;;;;;6215552;28;20045;-77
2022/03/26 04:59:47;;;;;;;26.13;11.50;;;;;;;;;;6231310;28;20604;-77
2022/03/26 05:02:49;;;;;;;24.20;9.98;;;;;;;;;;6238769;28;20474;-78
2022/03/26 05:05:51;;;;;;;25.58;10.15;;;;;;;;;;6237888;28;20409;-79
2022/03/26 05:08:52;;;;;;;23.92;10.05;;;;;;;;;;6238876;28;20092;-77
2022/03/26 05:11:54;;;;;;;25.38;9.90;;;;;;;;;;6240187;28;20053;-78
2022/03/26 05:14:56;;;;;;;25.98;10.30;;;;;;;;;;6213694;28;20197;-79
2022/03/26 05:17:58;;;;;;;29.00;11.10;;;;;;;;;;6224354;28;20054;-77
2022/03/26 05:21:00;;;;;;;29.25;13.20;;;;;;;;;;6237028;28;20085;-77
2022/03/26 05:24:05;;;;;;;29.70;11.55;;;;;;;;;;6229984;28;20034;-78
2022/03/26 05:27:07;;;;;;;35.60;12.87;;;;;;;;;;6214442;28;20050;-79
2022/03/26 05:30:09;;;;;;;28.90;12.23;;;;;;;;;;6193444;28;20129;-78
2022/03/26 05:33:11;;;;;;;29.08;12.52;;;;;;;;;;6192448;28;20089;-79
2022/03/26 05:36:13;;;;;;;30.05;12.75;;;;;;;;;;6215726;28;20149;-76
2022/03/26 05:39:15;;;;;;;34.83;12.77;;;;;;;;;;6231128;28;20966;-79
2022/03/26 05:42:18;;;;;;;32.63;12.18;;;;;;;;;;6210582;28;35611;-78
2022/03/26 05:45:20;;;;;;;27.08;11.10;;;;;;;;;;6259266;28;20058;-77
2022/03/26 05:48:21;;;;;;;24.20;11.18;;;;;;;;;;6229168;28;20066;-77
2022/03/26 05:51:23;;;;;;;28.85;12.43;;;;;;;;;;6221064;28;20037;-78
2022/03/26 05:54:25;;;;;;;28.90;12.50;;;;;;;;;;6235181;28;20110;-76
2022/03/26 05:57:26;;;;;;;32.17;13.40;;;;;;;;;;6235473;28;20124;-78
2022/03/26 06:00:28;;;;;;;36.58;14.50;;;;;;;;;;6211946;28;20167;-78
2022/03/26 06:03:30;;;;;;;36.50;14.93;;;;;;;;;;6212108;28;20125;-77
2022/03/26 06:06:31;;;;;;;37.67;14.90;;;;;;;;;;6207799;28;20057;-78
2022/03/26 06:09:34;;;;;;;40.30;14.57;;;;;;;;;;6234613;28;20056;-78
2022/03/26 06:12:36;;;;;;;36.22;14.07;;;;;;;;;;6217226;28;20137;-79
2022/03/26 06:15:38;;;;;;;35.13;13.70;;;;;;;;;;6222023;28;20689;-78
2022/03/26 06:18:45;;;;;;;34.33;13.77;;;;;;;;;;6240518;28;20517;-78
2022/03/26 06:21:46;;;;;;;39.72;14.80;;;;;;;;;;6238857;28;20452;-77
2022/03/26 06:24:48;;;;;;;40.17;13.63;;;;;;;;;;6220562;28;20057;-79
2022/03/26 06:27:50;;;;;;;37.38;14.70;;;;;;;;;;6235880;28;20052;-77
2022/03/26 06:30:52;;;;;;;35.55;14.82;;;;;;;;;;6211794;28;20338;-78
2022/03/26 06:33:54;;;;;;;37.65;16.35;;;;;;;;;;6213726;28;20149;-78
2022/03/26 06:36:55;;;;;;;33.65;16.60;;;;;;;;;;6229294;28;20046;-78
2022/03/26 06:39:58;;;;;;;40.80;19.90;;;;;;;;;;6215741;28;20177;-78
2022/03/26 06:43:00;;;;;;;34.78;14.90;;;;;;;;;;6215387;28;20148;-78
2022/03/26 06:46:01;;;;;;;34.15;15.57;;;;;;;;;;6219688;28;20045;-79
2022/03/26 06:49:04;;;;;;;38.55;15.68;;;;;;;;;;6200693;28;20537;-78
2022/03/26 06:52:06;;;;;;;34.35;15.40;;;;;;;;;;6203485;28;20124;-77
2022/03/26 06:55:08;;;;;;;34.38;14.55;;;;;;;;;;6207549;28;20135;-79
2022/03/26 06:58:10;;;;;;;39.22;15.70;;;;;;;;;;6236563;28;20077;-77
2022/03/26 07:01:17;;;;;;;33.95;15.18;;;;;;;;;;6216001;28;20049;-78
2022/03/26 07:04:19;;;;;;;38.08;15.05;;;;;;;;;;6215442;28;20042;-77
2022/03/26 07:07:20;;;;;;;33.97;15.07;;;;;;;;;;6228028;28;20058;-78
2022/03/26 07:10:23;;;;;;;37.70;15.48;;;;;;;;;;6246989;28;20125;-79
2022/03/26 07:13:25;;;;;;;35.53;14.73;;;;;;;;;;6234840;28;20140;-79
2022/03/26 07:16:28;;;;;;;34.63;15.25;;;;;;;;;;6248281;28;20037;-80
2022/03/26 07:19:30;;;;;;;32.33;14.05;;;;;;;;;;6223160;28;20507;-79
2022/03/26 07:22:34;;;;;;;32.55;13.80;;;;;;;;;;6221236;28;20049;-79
2022/03/26 07:25:36;;;;;;;36.25;14.20;;;;;;;;;;6214459;28;20052;-76
2022/03/26 07:28:39;;;;;;;38.67;15.82;;;;;;;;;;6216388;28;20045;-78
2022/03/26 07:31:40;;;;;;;38.05;15.63;;;;;;;;;;6213280;28;20042;-77
2022/03/26 07:34:42;;;;;;;38.28;15.75;;;;;;;;;;6212098;28;20504;-77
2022/03/26 07:37:44;;;;;;;35.47;16.38;;;;;;;;;;6240196;28;20041;-79
2022/03/26 07:40:49;;;;;;;39.25;17.27;;;;;;;;;;6230996;28;20041;-78
2022/03/26 07:43:51;;;;;;;36.95;15.45;;;;;;;;;;6216435;28;20535;-80
2022/03/26 07:46:53;;;;;;;40.33;17.05;;;;;;;;;;6236891;28;20075;-78
2022/03/26 07:49:54;;;;;;;32.63;15.25;;;;;;;;;;6240339;28;20116;-78
2022/03/26 07:52:56;;;;;;;34.00;14.20;;;;;;;;;;6228962;28;20124;-78
2022/03/26 07:55:57;;;;;;;32.67;14.13;;;;;;;;;;6216310;28;20046;-78
2022/03/26 07:58:59;;;;;;;32.13;13.57;;;;;;;;;;6230590;28;20471;-79
2022/03/26 08:02:01;;;;;;;38.70;15.98;;;;;;;;;;6214021;28;20113;-77
2022/03/26 08:05:03;;;;;;;31.23;14.85;;;;;;;;;;6221936;28;20419;-77
2022/03/26 08:08:05;;;;;;;34.58;15.13;;;;;;;;;;6230901;28;20037;-76
2022/03/26 08:11:06;;;;;;;34.35;14.70;;;;;;;;;;6238051;28;20534;-77
2022/03/26 08:14:08;;;;;;;37.33;15.32;;;;;;;;;;6227434;28;20124;-76
2022/03/26 08:17:10;;;;;;;32.25;14.30;;;;;;;;;;6235970;28;20069;-81
2022/03/26 08:20:12;;;;;;;31.88;13.98;;;;;;;;;;6239156;28;20065;-77
2022/03/26 08:23:13;;;;;;;30.75;14.23;;;;;;;;;;6227873;28;20180;-75
2022/03/26 08:26:26;;;;;;;35.50;15.60;;;;;;;;;;6211160;28;20128;-78
2022/03/26 08:29:28;;;;;;;33.43;15.43;;;;;;;;;;6221302;28;20534;-77
2022/03/26 08:32:30;;;;;;;32.00;14.85;;;;;;;;;;6212228;28;20491;-77
2022/03/26 08:35:33;;;;;;;35.00;17.25;;;;;;;;;;6211298;28;20557;-77
2022/03/26 08:38:34;;;;;;;35.75;16.70;;;;;;;;;;6214771;28;20491;-77
2022/03/26 08:41:37;;;;;;;32.67;15.90;;;;;;;;;;6209514;28;20065;-77
2022/03/26 08:44:39;;;;;;;29.50;15.52;;;;;;;;;;6215894;28;20037;-77
2022/03/26 08:47:40;;;;;;;32.58;14.85;;;;;;;;;;6255297;28;20417;-77
2022/03/26 08:50:43;;;;;;;34.88;16.95;;;;;;;;;;6260742;28;20128;-79
2022/03/26 08:53:45;;;;;;;38.65;17.42;;;;;;;;;;6220255;28;20101;-79
2022/03/26 08:56:46;;;;;;;35.33;16.60;;;;;;;;;;6234211;28;20041;-78
2022/03/26 08:59:48;;;;;;;37.97;18.00;;;;;;;;;;6220419;28;20041;-79
2022/03/26 09:02:50;;;;;;;31.08;16.92;;;;;;;;;;6213569;28;20089;-78
2022/03/26 09:05:52;;;;;;;35.58;17.05;;;;;;;;;;6224515;28;20132;-78
2022/03/26 09:09:06;;;;;;;37.47;17.03;;;;;;;;;;6197266;28;20117;-79
2022/03/26 09:12:08;;;;;;;38.03;17.55;;;;;;;;;;6210199;28;20068;-80
2022/03/26 09:15:09;;;;;;;36.63;18.20;;;;;;;;;;6190099;28;20046;-78
2022/03/26 09:18:11;;;;;;;38.22;18.23;;;;;;;;;;6213149;28;20207;-80
2022/03/26 09:21:13;;;;;;;35.95;18.73;;;;;;;;;;6208699;28;20121;-76
2022/03/26 09:24:15;;;;;;;36.97;18.25;;;;;;;;;;6216243;28;20492;-79
2022/03/26 09:27:18;;;;;;;35.67;18.27;;;;;;;;;;6212962;28;20119;-78
2022/03/26 09:30:19;;;;;;;39.90;18.67;;;;;;;;;;6212840;28;20404;-79
2022/03/26 09:33:21;;;;;;;37.70;18.15;;;;;;;;;;6212957;28;20077;-78
2022/03/26 09:36:23;;;;;;;37.88;17.90;;;;;;;;;;6214161;28;20340;-78
2022/03/26 09:39:24;;;;;;;37.17;18.13;;;;;;;;;;6213931;28;20101;-78
2022/03/26 09:42:26;;;;;;;34.80;17.75;;;;;;;;;;6244568;28;20046;-78
2022/03/26 09:45:28;;;;;;;35.60;18.15;;;;;;;;;;6217156;28;20184;-77
2022/03/26 09:48:29;;;;;;;34.65;18.52;;;;;;;;;;6202912;28;20125;-80
2022/03/26 09:51:32;;;;;;;32.42;17.70;;;;;;;;;;6224641;28;20129;-78
2022/03/26 09:54:36;;;;;;;37.30;18.33;;;;;;;;;;6221192;28;20128;-76
2022/03/26 09:57:38;;;;;;;37.13;17.83;;;;;;;;;;6219037;28;20038;-78
2022/03/26 10:00:40;;;;;;;36.22;17.98;;;;;;;;;;6218307;28;20050;-78
2022/03/26 10:04:12;;;;;;;31.13;16.73;;;;;;;;;;6218660;28;20038;-79
2022/03/26 10:07:14;;;;;;;32.42;15.75;;;;;;;;;;6228867;28;20114;-78
2022/03/26 10:10:23;;;;;;;31.52;15.95;;;;;;;;;;6208350;28;20088;-79
2022/03/26 10:13:36;;;;;;;30.85;15.43;;;;;;;;;;6213450;28;20133;-77
2022/03/26 10:16:49;;;;;;;27.77;14.75;;;;;;;;;;6212570;28;20129;-77
2022/03/26 10:20:02;;;;;;;32.22;15.35;;;;;;;;;;6212308;28;20049;-78
2022/03/26 10:23:04;;;;;;;31.60;15.68;;;;;;;;;;6213035;28;20114;-79
2022/03/26 10:26:09;;;;;;;25.80;14.50;;;;;;;;;;6212491;28;20191;-79
2022/03/26 10:29:10;;;;;;;27.67;13.32;;;;;;;;;;6214170;28;20046;-78
2022/03/26 10:35:33;;;;;;;28.98;14.85;;;;;;;;;;6214145;28;20053;-78
2022/03/26 10:38:42;;;;;;;30.05;14.10;;;;;;;;;;6207411;28;20089;-80
2022/03/26 10:41:44;;;;;;;26.30;13.90;;;;;;;;;;6194170;28;20042;-79
2022/03/26 10:44:47;;;;;;;25.52;13.55;;;;;;;;;;6213297;28;20545;-79
2022/03/26 10:47:52;;;;;;;27.23;14.25;;;;;;;;;;6213991;28;20077;-79
2022/03/26 10:50:56;;;;;;;25.05;13.68;;;;;;;;;;6213821;28;20702;-78
2022/03/26 10:53:59;;;;;;;26.00;13.55;;;;;;;;;;6215147;28;20080;-78
2022/03/26 10:57:02;;;;;;;27.10;13.60;;;;;;;;;;6206458;28;20129;-80
2022/03/26 11:00:04;;;;;;;24.92;13.52;;;;;;;;;;6218224;28;20703;-81
2022/03/26 11:03:06;;;;;;;27.83;13.88;;;;;;;;;;6215351;28;20104;-80
2022/03/26 11:06:10;;;;;;;25.60;12.03;;;;;;;;;;6219570;28;20229;-80
2022/03/26 11:09:12;;;;;;;25.40;12.57;;;;;;;;;;6215950;28;20041;-80
2022/03/26 11:12:17;;;;;;;20.83;10.23;;;;;;;;;;6241511;28;20153;-79
2022/03/26 11:15:29;;;;;;;24.30;11.50;;;;;;;;;;6219044;28;20125;-78
2022/03/26 11:18:52;;;;;;;20.50;12.00;;;;;;;;;;6212947;28;20359;-80
2022/03/26 11:22:15;;;;;;;25.10;11.98;;;;;;;;;;6210988;28;20156;-78
2022/03/26 11:25:48;;;;;;;20.80;10.68;;;;;;;;;;6213067;28;20065;-78
2022/03/26 11:29:27;;;;;;;20.47;10.73;;;;;;;;;;6212764;28;20467;-79
2022/03/26 11:32:40;;;;;;;26.63;11.52;;;;;;;;;;6212407;28;20088;-78
2022/03/26 11:35:52;;;;;;;22.60;11.77;;;;;;;;;;6213006;28;20053;-77
2022/03/26 11:38:55;;;;;;;24.90;12.15;;;;;;;;;;6212676;28;20136;-80
2022/03/26 11:42:06;;;;;;;22.30;11.77;;;;;;;;;;6213267;28;20157;-77
2022/03/26 11:52:14;;;;;;;21.23;10.63;;;;;;;;;;6214643;28;20061;-79
2022/03/26 11:55:16;;;;;;;20.38;10.70;;;;;;;;;;6215689;28;20101;-77
2022/03/26 11:58:26;;;;;;;21.08;11.60;;;;;;;;;;6215469;28;20057;-77
2022/03/26 12:01:35;;;;;;;20.38;11.77;;;;;;;;;;6212796;28;20041;-77
2022/03/26 12:04:50;;;;;;;21.88;11.40;;;;;;;;;;6217765;28;20052;-78
2022/03/26 12:08:17;;;;;;;23.95;11.93;;;;;;;;;;6213814;28;20056;-77
2022/03/26 12:11:25;;;;;;;22.40;11.70;;;;;;;;;;6214955;28;20180;-77
2022/03/26 12:14:29;;;;;;;23.98;11.43;;;;;;;;;;6202561;28;20093;-78
2022/03/26 12:17:47;;;;;;;18.85;11.25;;;;;;;;;;6191491;28;20050;-76
2022/03/26 12:20:51;;;;;;;20.77;10.43;;;;;;;;;;6193195;28;20176;-76
2022/03/26 12:23:53;;;;;;;21.27;10.98;;;;;;;;;;6221873;28;20192;-78
2022/03/26 12:26:54;;;;;;;20.42;10.57;;;;;;;;;;6234213;28;20162;-78
2022/03/26 12:29:58;;;;;;;17.80;10.23;;;;;;;;;;6216039;28;20064;-78
2022/03/26 12:33:00;;;;;;;21.73;11.05;;;;;;;;;;6228695;28;20579;-78
2022/03/26 12:36:04;;;;;;;19.10;10.02;;;;;;;;;;6209976;28;20183;-77
2022/03/26 12:39:06;;;;;;;22.88;10.18;;;;;;;;;;6215564;28;20103;-75
2022/03/26 12:42:08;;;;;;;24.13;12.27;;;;;;;;;;6236623;28;20041;-77
2022/03/26 12:45:15;;;;;;;21.63;11.67;;;;;;;;;;6217427;28;20050;-78
2022/03/26 12:48:17;;;;;;;21.95;11.27;;;;;;;;;;6237101;28;20516;-80
2022/03/26 12:51:19;;;;;;;18.85;11.18;;;;;;;;;;6235796;28;20056;-78
2022/03/26 12:54:22;;;;;;;20.77;10.80;;;;;;;;;;6232579;28;20046;-78
2022/03/26 12:57:25;;;;;;;18.33;10.32;;;;;;;;;;6213018;28;20116;-77
2022/03/26 13:00:27;;;;;;;11.38;6.85;;;;;;;;;;6224968;28;20132;-78
2022/03/26 13:03:29;;;;;;;11.40;6.75;;;;;;;;;;6211193;28;20046;-78
2022/03/26 13:06:31;;;;;;;13.73;7.73;;;;;;;;;;6210385;28;20065;-77
2022/03/26 13:09:32;;;;;;;12.60;7.23;;;;;;;;;;6212644;28;20341;-77
2022/03/26 13:12:35;;;;;;;14.20;6.88;;;;;;;;;;6215012;28;20045;-77
2022/03/26 13:15:41;;;;;;;12.40;7.05;;;;;;;;;;6231372;28;20691;-79
2022/03/26 13:18:48;;;;;;;13.70;7.05;;;;;;;;;;6217443;28;20488;-79
2022/03/26 13:21:51;;;;;;;11.07;5.40;;;;;;;;;;6215114;28;20037;-80
2022/03/26 13:24:54;;;;;;;12.75;6.72;;;;;;;;;;6230744;28;20046;-79
2022/03/26 13:28:19;;;;;;;13.77;6.50;;;;;;;;;;6223082;28;20044;-79
2022/03/26 13:31:23;;;;;;;8.13;4.57;;;;;;;;;;6222133;28;20827;-79
2022/03/26 13:34:34;;;;;;;8.18;5.20;;;;;;;;;;6224054;28;20135;-79
2022/03/26 13:37:36;;;;;;;10.85;5.05;;;;;;;;;;6223146;28;20101;-78
2022/03/26 13:40:38;;;;;;;9.93;4.68;;;;;;;;;;6230146;28;20136;-79
2022/03/26 13:43:40;;;;;;;9.43;4.60;;;;;;;;;;6249211;28;20105;-80
2022/03/26 13:46:42;;;;;;;7.13;4.05;;;;;;;;;;6224691;28;20075;-79
2022/03/26 13:49:44;;;;;;;6.40;3.95;;;;;;;;;;6225769;28;20107;-78
2022/03/26 13:52:47;;;;;;;7.97;4.57;;;;;;;;;;6223462;28;20133;-80
2022/03/26 13:55:50;;;;;;;9.77;4.13;;;;;;;;;;6248206;28;20135;-78
2022/03/26 13:58:52;;;;;;;6.85;3.97;;;;;;;;;;6240335;28;20084;-79
2022/03/26 14:01:54;;;;;;;6.32;3.83;;;;;;;;;;6223408;28;20323;-80
2022/03/26 14:04:56;;;;;;;;;;;;;;;;;;6223160;28;20060;-80
2022/03/26 14:07:59;;;;;;;6.35;4.53;;;;;;;;;;6222411;28;19956;-79
2022/03/26 14:11:01;;;;;;;7.20;4.57;;;;;;;;;;6221362;28;20147;-78
2022/03/26 14:14:03;;;;;;;6.67;4.60;;;;;;;;;;6220358;28;20203;-79
2022/03/26 14:17:04;;;;;;;7.50;4.43;;;;;;;;;;6221391;28;20149;-78
2022/03/26 14:20:07;;;;;;;9.07;4.30;;;;;;;;;;6220753;28;20041;-78
2022/03/26 14:23:12;;;;;;;8.73;4.47;;;;;;;;;;6220216;28;20050;-81
2022/03/26 14:26:13;;;;;;;7.13;4.10;;;;;;;;;;6221595;28;20127;-79
2022/03/26 14:29:15;;;;;;;8.25;4.10;;;;;;;;;;6221480;28;20064;-78
2022/03/26 14:32:16;;;;;;;6.65;3.95;;;;;;;;;;6217166;28;20046;-77
2022/03/26 14:35:19;;;;;;;10.00;4.47;;;;;;;;;;6218620;28;20042;-77
2022/03/26 14:38:21;;;;;;;6.63;3.95;;;;;;;;;;6216499;28;20129;-76
2022/03/26 14:41:22;;;;;;;8.93;3.85;;;;;;;;;;6212297;28;20077;-77
2022/03/26 14:44:25;;;;;;;8.15;3.92;;;;;;;;;;6214105;28;20821;-77
2022/03/26 14:47:27;;;;;;;8.30;4.00;;;;;;;;;;6234258;28;20387;-77
2022/03/26 14:50:29;;;;;;;5.45;3.40;;;;;;;;;;6238214;28;20048;-78
2022/03/26 14:53:30;;;;;;;7.55;4.20;;;;;;;;;;6228451;28;20064;-78
2022/03/26 14:56:32;;;;;;;5.65;3.60;;;;;;;;;;6216204;28;20276;-79
2022/03/26 14:59:34;;;;;;;5.50;3.78;;;;;;;;;;6216858;28;20499;-79
2022/03/26 15:02:36;;;;;;;4.45;3.35;;;;;;;;;;6216844;28;20042;-79
2022/03/26 15:05:39;;;;;;;8.32;3.80;;;;;;;;;;6216455;28;20503;-79
2022/03/26 15:08:41;;;;;;;5.53;3.97;;;;;;;;;;6217094;28;20120;-77
2022/03/26 15:11:43;;;;;;;5.53;3.50;;;;;;;;;;6216214;28;20042;-78
2022/03/26 15:14:44;;;;;;;5.95;3.47;;;;;;;;;;6217268;28;20068;-78
2022/03/26 15:17:46;;;;;;;5.68;3.58;;;;;;;;;;6215121;28;20041;-78
2022/03/26 15:20:47;;;;;;;7.50;4.22;;;;;;;;;;6247748;28;20061;-78
2022/03/26 15:23:49;;;;;;;4.60;3.60;;;;;;;;;;6214362;28;20053;-78
2022/03/26 15:26:51;;;;;;;4.90;3.47;;;;;;;;;;6240521;28;20045;-78
2022/03/26 15:29:59;;;;;;;5.05;4.03;;;;;;;;;;6236546;28;20041;-77
2022/03/26 15:33:00;;;;;;;5.40;4.32;;;;;;;;;;6239338;28;20044;-78
2022/03/26 15:36:02;;;;;;;6.18;3.65;;;;;;;;;;6240098;28;20551;-78
2022/03/26 15:39:05;;;;;;;6.57;3.65;;;;;;;;;;6216327;28;20123;-79
2022/03/26 15:42:07;;;;;;;7.10;3.65;;;;;;;;;;6214425;28;20101;-79
2022/03/26 15:45:10;;;;;;;5.97;3.50;;;;;;;;;;6197558;28;20117;-79
2022/03/26 15:48:11;;;;;;;;;;;;;;;;;;6240796;28;20104;-79
2022/03/26 15:51:13;;;;;;;5.90;3.25;;;;;;;;;;6239109;28;20283;-80
2022/03/26 15:54:14;;;;;;;5.60;3.63;;;;;;;;;;6217933;28;20439;-80
2022/03/26 15:57:16;;;;;;;4.45;3.20;;;;;;;;;;6216881;28;20084;-79
2022/03/26 16:00:18;;;;;;;5.53;3.45;;;;;;;;;;6216604;28;20504;-78
2022/03/26 16:03:19;;;;;;;5.93;3.42;;;;;;;;;;6216964;28;20048;-80
2022/03/26 16:06:22;;;;;;;5.25;3.50;;;;;;;;;;6217160;28;20053;-79
2022/03/26 16:09:23;;;;;;;3.97;3.53;;;;;;;;;;6215027;28;20505;-78
2022/03/26 16:12:26;;;;;;;4.10;2.88;;;;;;;;;;6215850;28;20117;-79
2022/03/26 16:15:27;;;;;;;4.97;3.25;;;;;;;;;;6216186;28;20073;-79
2022/03/26 16:18:29;;;;;;;4.85;3.17;;;;;;;;;;6216370;28;20101;-79
2022/03/26 16:21:30;;;;;;;4.00;2.88;;;;;;;;;;6225141;28;20128;-78
2022/03/26 16:24:32;;;;;;;4.55;3.05;;;;;;;;;;6239169;28;20045;-79
2022/03/26 16:27:36;;;;;;;5.22;2.92;;;;;;;;;;6239982;28;20120;-78
2022/03/26 16:30:38;;;;;;;3.95;2.58;;;;;;;;;;6216232;28;20053;-78
2022/03/26 16:33:39;;;;;;;4.25;2.90;;;;;;;;;;6216820;28;20042;-80
2022/03/26 16:36:41;;;;;;;5.50;2.95;;;;;;;;;;6215599;28;20041;-81
2022/03/26 16:39:42;;;;;;;5.63;3.30;;;;;;;;;;6214519;28;20192;-80
2022/03/26 16:42:44;;;;;;;5.00;3.75;;;;;;;;;;6216297;28;20128;-80
2022/03/26 16:45:46;;;;;;;4.95;2.83;;;;;;;;;;6216310;28;20044;-78
2022/03/26 16:48:47;;;;;;;5.38;3.40;;;;;;;;;;6227357;28;20060;-78
2022/03/26 16:51:50;;;;;;;5.90;3.47;;;;;;;;;;6211565;28;20426;-77
2022/03/26 16:54:52;;;;;;;7.78;4.45;;;;;;;;;;6210868;28;20149;-77
2022/03/26 16:57:55;;;;;;;5.85;3.42;;;;;;;;;;6212201;28;20046;-76
2022/03/26 17:00:56;;;;;;;;;;;;;;;;;;6234806;28;20053;-78
2022/03/26 17:03:58;;;;;;;4.35;3.50;;;;;;;;;;6236417;28;19921;-78
2022/03/26 17:07:00;;;;;;;6.10;4.85;;;;;;;;;;6239514;28;20064;-78
2022/03/26 17:10:06;;;;;;;9.45;4.75;;;;;;;;;;6213289;28;20195;-77
2022/03/26 17:13:07;;;;;;;10.65;5.15;;;;;;;;;;6214030;28;20614;-77
2022/03/26 17:16:09;;;;;;;7.72;5.13;;;;;;;;;;6213429;28;20084;-78
2022/03/26 17:19:11;;;;;;;9.27;5.70;;;;;;;;;;6212121;28;20041;-79
2022/03/26 17:22:13;;;;;;;9.32;5.28;;;;;;;;;;6211816;28;20041;-77
2022/03/26 17:25:15;;;;;;;10.60;5.63;;;;;;;;;;6212486;28;20056;-78
2022/03/26 17:28:18;;;;;;;11.23;5.28;;;;;;;;;;6214277;28;20109;-78
2022/03/26 17:31:20;;;;;;;11.90;5.47;;;;;;;;;;6244210;28;20049;-78
2022/03/26 17:34:21;;;;;;;9.75;5.95;;;;;;;;;;6209768;28;20072;-78
2022/03/26 17:37:23;;;;;;;8.05;5.63;;;;;;;;;;6213712;28;20128;-78
2022/03/26 17:40:25;;;;;;;8.98;5.65;;;;;;;;;;6212060;28;20042;-79
2022/03/26 17:43:28;;;;;;;15.60;6.05;;;;;;;;;;6208249;28;20037;-79
2022/03/26 17:46:30;;;;;;;11.00;6.13;;;;;;;;;;6222938;28;20170;-78
2022/03/26 17:49:32;;;;;;;10.73;6.20;;;;;;;;;;6218430;28;20045;-79
2022/03/26 17:52:34;;;;;;;10.52;6.13;;;;;;;;;;6208314;28;20146;-79
2022/03/26 17:55:36;;;;;;;10.95;6.60;;;;;;;;;;6188475;28;20042;-78
2022/03/26 17:58:37;;;;;;;15.07;8.27;;;;;;;;;;6210846;28;20045;-79
2022/03/26 18:01:39;;;;;;;10.70;6.28;;;;;;;;;;6210102;28;20120;-77
2022/03/26 18:04:40;;;;;;;12.52;6.60;;;;;;;;;;6213116;28;20049;-79
2022/03/26 18:07:42;;;;;;;10.40;6.72;;;;;;;;;;6244159;28;20038;-79
2022/03/26 18:10:44;;;;;;;10.82;6.75;;;;;;;;;;6212252;28;20042;-78